createdAt,value
2018-04-12T00:02:17.365Z,98884.06
2018-04-12T00:04:43.298Z,98884.38
2018-04-12T00:07:09.246Z,98877.38
2018-04-12T00:09:35.180Z,98870.86
2018-04-12T00:12:01.148Z,98870.59
2018-04-12T00:14:27.121Z,98862.73
2018-04-12T00:16:53.060Z,98869.32
2018-04-12T00:19:18.999Z,98859.42
2018-04-12T00:21:44.943Z,98860.88
2018-04-12T00:24:10.883Z,98864.09
2018-04-12T00:26:36.861Z,98862.46
2018-04-12T00:29:02.807Z,98860.52
2018-04-12T00:31:28.767Z,98853.39
2018-04-12T00:33:54.703Z,98852.66
2018-04-12T00:36:20.693Z,98847.44
2018-04-12T00:38:46.644Z,98851.16
2018-04-12T00:41:12.585Z,98853.74
2018-04-12T00:43:38.554Z,98851.22
2018-04-12T00:46:04.493Z,98861.02
2018-04-12T00:48:30.486Z,98859.00
2018-04-12T00:50:56.431Z,98853.94
2018-04-12T00:53:22.368Z,98855.44
2018-04-12T00:55:48.314Z,98856.76
2018-04-12T00:58:14.262Z,98859.33
2018-04-12T01:00:40.236Z,98857.84
2018-04-12T01:03:06.208Z,98851.77
2018-04-12T01:05:32.177Z,98856.89
2018-04-12T01:07:58.127Z,98847.86
2018-04-12T01:10:24.116Z,98851.58
2018-04-12T01:12:50.077Z,98839.86
2018-04-12T01:15:16.046Z,98843.81
2018-04-12T01:17:41.977Z,98839.62
2018-04-12T01:20:08.264Z,98844.44
2018-04-12T01:22:34.210Z,98836.89
2018-04-12T01:25:00.135Z,98834.95
2018-04-12T01:27:26.096Z,98833.09
2018-04-12T01:29:52.046Z,98827.24
2018-04-12T01:32:17.992Z,98826.01
2018-04-12T01:34:43.925Z,98819.86
2018-04-12T01:37:09.886Z,98818.45
2018-04-12T01:39:35.833Z,98819.66
2018-04-12T01:42:01.771Z,98818.30
2018-04-12T01:44:27.815Z,98815.48
2018-04-12T01:46:53.757Z,98816.70
2018-04-12T01:49:19.699Z,98813.73
2018-04-12T01:51:45.620Z,98806.52
2018-04-12T01:54:11.564Z,98815.68
2018-04-12T01:56:37.515Z,98807.60
2018-04-12T01:59:03.477Z,98804.91
2018-04-12T02:01:29.426Z,98806.02
2018-04-12T02:03:55.380Z,98807.78
2018-04-12T02:06:21.334Z,98801.09
2018-04-12T02:08:47.313Z,98798.15
2018-04-12T02:11:13.279Z,98797.66
2018-04-12T02:13:39.233Z,98794.11
2018-04-12T02:16:05.161Z,98798.09
2018-04-12T02:18:31.110Z,98795.81
2018-04-12T02:20:57.100Z,98796.82
2018-04-12T02:23:23.064Z,98785.89
2018-04-12T02:25:49.014Z,98785.48
2018-04-12T02:28:14.942Z,98783.69
2018-04-12T02:30:40.896Z,98784.13
2018-04-12T02:33:06.858Z,98780.19
2018-04-12T02:35:32.803Z,98782.03
2018-04-12T02:37:58.823Z,98777.30
2018-04-12T02:40:24.850Z,98783.14
2018-04-12T02:42:50.786Z,98764.09
2018-04-12T02:45:16.741Z,98782.19
2018-04-12T02:47:42.700Z,98777.61
2018-04-12T02:50:08.676Z,98769.91
2018-04-12T02:52:34.640Z,98770.72
2018-04-12T02:55:00.610Z,98769.40
2018-04-12T02:57:26.597Z,98764.72
2018-04-12T02:59:52.540Z,98764.63
2018-04-12T03:02:18.508Z,98759.05
2018-04-12T03:04:44.461Z,98762.07
2018-04-12T03:07:11.210Z,98758.92
2018-04-12T03:09:37.170Z,98756.78
2018-04-12T03:12:03.102Z,98747.08
2018-04-12T03:14:29.107Z,98751.27
2018-04-12T03:16:55.057Z,98749.63
2018-04-12T03:19:21.015Z,98748.28
2018-04-12T03:21:46.949Z,98749.35
2018-04-12T03:24:12.933Z,98741.05
2018-04-12T03:26:38.884Z,98743.88
2018-04-12T03:29:04.840Z,98738.53
2018-04-12T03:31:30.765Z,98732.84
2018-04-12T03:33:56.701Z,98739.61
2018-04-12T03:36:22.630Z,98727.63
2018-04-12T03:38:48.561Z,98723.93
2018-04-12T03:41:14.523Z,98723.41
2018-04-12T03:43:40.488Z,98720.16
2018-04-12T03:46:06.436Z,98715.14
2018-04-12T03:48:32.526Z,98713.39
2018-04-12T03:50:58.455Z,98703.11
2018-04-12T03:53:24.416Z,98710.30
2018-04-12T03:55:50.337Z,98709.16
2018-04-12T03:58:16.323Z,98710.58
2018-04-12T04:00:42.270Z,98712.78
2018-04-12T04:03:08.233Z,98708.66
2018-04-12T04:05:34.189Z,98706.11
2018-04-12T04:08:00.172Z,98705.05
2018-04-12T04:10:26.121Z,98714.96
2018-04-12T04:12:52.052Z,98712.58
2018-04-12T04:15:18.025Z,98715.09
2018-04-12T04:17:43.957Z,98711.71
2018-04-12T04:20:09.928Z,98712.68
2018-04-12T04:22:35.880Z,98702.38
2018-04-12T04:25:01.834Z,98706.38
2018-04-12T04:27:27.818Z,98705.57
2018-04-12T04:29:53.793Z,98704.16
2018-04-12T04:32:19.774Z,98706.65
2018-04-12T04:34:45.724Z,98703.02
2018-04-12T04:37:11.659Z,98701.40
2018-04-12T04:39:37.636Z,98707.44
2018-04-12T04:42:03.594Z,98717.12
2018-04-12T04:44:29.521Z,98716.41
2018-04-12T04:46:55.474Z,98709.22
2018-04-12T04:49:21.443Z,98715.98
2018-04-12T04:51:47.389Z,98724.33
2018-04-12T04:54:13.344Z,98723.29
2018-04-12T04:56:39.341Z,98722.74
2018-04-12T04:59:05.288Z,98730.27
2018-04-12T05:01:31.284Z,98725.28
2018-04-12T05:03:57.234Z,98718.88
2018-04-12T05:06:23.187Z,98722.30
2018-04-12T05:08:49.126Z,98720.00
2018-04-12T05:11:15.093Z,98713.21
2018-04-12T05:13:41.101Z,98712.98
2018-04-12T05:16:07.070Z,98715.09
2018-04-12T05:18:33.039Z,98715.32
2018-04-12T05:20:59.014Z,98715.32
2018-04-12T05:23:24.991Z,98712.55
2018-04-12T05:25:50.937Z,98711.19
2018-04-12T05:30:51.934Z,98714.10
2018-04-12T05:33:17.899Z,98723.05
2018-04-12T05:35:43.884Z,98721.44
2018-04-12T05:38:09.845Z,98711.08
2018-04-12T05:40:35.818Z,98716.33
2018-04-12T05:43:01.793Z,98710.30
2018-04-12T05:45:27.761Z,98710.95
2018-04-12T05:47:53.728Z,98706.80
2018-04-12T05:50:19.685Z,98703.11
2018-04-12T05:52:45.633Z,98695.72
2018-04-12T05:55:11.624Z,98681.98
2018-04-12T05:57:37.620Z,98694.41
2018-04-12T06:00:03.563Z,98693.48
2018-04-12T06:02:29.504Z,98696.23
2018-04-12T06:04:55.435Z,98699.91
2018-04-12T06:07:21.454Z,98696.20
2018-04-12T06:09:47.357Z,98700.80
2018-04-12T06:12:13.307Z,98704.56
2018-04-12T06:14:39.259Z,98702.27
2018-04-12T06:17:05.191Z,98699.78
2018-04-12T06:19:31.137Z,98692.98
2018-04-12T06:21:57.077Z,98695.05
2018-04-12T06:24:23.054Z,98685.56
2018-04-12T06:26:49.001Z,98679.78
2018-04-12T06:29:14.940Z,98681.77
2018-04-12T06:31:40.874Z,98687.84
2018-04-12T06:34:06.801Z,98686.10
2018-04-12T06:36:32.749Z,98684.84
2018-04-12T06:38:58.691Z,98683.16
2018-04-12T06:41:24.638Z,98673.75
2018-04-12T06:43:50.601Z,98672.91
2018-04-12T06:46:16.561Z,98675.36
2018-04-12T06:48:42.564Z,98678.59
2018-04-12T06:51:08.531Z,98679.26
2018-04-12T06:53:34.502Z,98683.81
2018-04-12T06:56:00.457Z,98685.15
2018-04-12T06:58:26.480Z,98681.45
2018-04-12T07:00:52.469Z,98682.70
2018-04-12T07:03:18.426Z,98679.56
2018-04-12T07:05:44.377Z,98687.83
2018-04-12T07:08:10.323Z,98682.01
2018-04-12T07:10:36.285Z,98678.33
2018-04-12T07:13:02.242Z,98681.51
2018-04-12T07:15:28.189Z,98678.42
2018-04-12T07:17:54.121Z,98682.30
2018-04-12T07:20:20.044Z,98675.99
2018-04-12T07:22:46.026Z,98675.37
2018-04-12T07:25:11.984Z,98650.47
2018-04-12T07:27:37.913Z,98675.52
2018-04-12T07:30:03.837Z,98664.34
2018-04-12T07:32:29.796Z,98672.55
2018-04-12T07:34:55.769Z,98664.77
2018-04-12T07:37:21.721Z,98657.89
2018-04-12T07:39:47.677Z,98662.13
2018-04-12T07:42:13.677Z,98662.72
2018-04-12T07:44:39.721Z,98671.94
2018-04-12T07:47:05.686Z,98672.88
2018-04-12T07:49:31.676Z,98671.83
2018-04-12T07:51:57.644Z,98669.61
2018-04-12T07:54:23.593Z,98671.47
2018-04-12T07:56:49.543Z,98672.85
2018-04-12T07:59:15.502Z,98664.09
2018-04-12T08:01:41.463Z,98670.47
2018-04-12T08:04:07.444Z,98663.79
2018-04-12T08:06:33.368Z,98671.52
2018-04-12T08:08:59.332Z,98677.81
2018-04-12T08:11:25.264Z,98683.53
2018-04-12T08:13:51.201Z,98681.25
2018-04-12T08:16:17.204Z,98678.23
2018-04-12T08:18:43.186Z,98680.38
2018-04-12T08:21:09.160Z,98673.51
2018-04-12T08:23:35.133Z,98673.16
2018-04-12T08:26:01.085Z,98666.27
2018-04-12T08:28:27.023Z,98661.97
2018-04-12T08:30:53.013Z,98661.30
2018-04-12T08:33:18.972Z,98658.33
2018-04-12T08:35:44.898Z,98658.33
2018-04-12T08:38:10.841Z,98653.48
2018-04-12T08:40:36.788Z,98648.88
2018-04-12T08:43:02.737Z,98641.73
2018-04-12T08:45:28.698Z,98640.00
2018-04-12T08:47:54.645Z,98645.07
2018-04-12T08:50:20.585Z,98650.06
2018-04-12T08:52:46.519Z,98668.48
2018-04-12T08:55:12.518Z,98676.05
2018-04-12T08:57:38.480Z,98678.00
2018-04-12T09:00:04.430Z,98675.40
2018-04-12T09:02:30.396Z,98664.12
2018-04-12T09:04:56.356Z,98677.48
2018-04-12T09:07:22.290Z,98674.67
2018-04-12T09:09:49.272Z,98669.98
2018-04-12T09:12:15.258Z,98666.97
2018-04-12T09:14:41.177Z,98670.36
2018-04-12T09:17:07.135Z,98653.98
2018-04-12T09:19:33.207Z,98658.50
2018-04-12T09:21:59.142Z,98655.55
2018-04-12T09:24:25.091Z,98653.91
2018-04-12T09:26:51.033Z,98629.70
2018-04-12T09:29:16.993Z,98640.09
2018-04-12T09:31:42.932Z,98649.12
2018-04-12T09:34:08.869Z,98647.52
2018-04-12T09:36:34.834Z,98651.64
2018-04-12T09:39:00.872Z,98641.52
2018-04-12T09:41:26.810Z,98667.21
2018-04-12T09:43:52.771Z,98663.70
2018-04-12T09:46:18.830Z,98650.81
2018-04-12T09:48:44.706Z,98652.55
2018-04-12T09:51:10.670Z,98646.20
2018-04-12T09:53:38.653Z,98641.45
2018-04-12T09:56:04.601Z,98650.64
2018-04-12T09:58:30.534Z,98681.63
2018-04-12T10:00:56.476Z,98667.47
2018-04-12T10:03:22.402Z,98662.65
2018-04-12T10:05:48.338Z,98680.45
2018-04-12T10:08:14.367Z,98676.11
2018-04-12T10:10:40.319Z,98664.86
2018-04-12T10:13:06.257Z,98671.50
2018-04-12T10:15:32.200Z,98694.28
2018-04-12T10:17:58.148Z,98669.23
2018-04-12T10:20:24.115Z,98646.69
2018-04-12T10:22:50.093Z,98643.45
2018-04-12T10:25:16.063Z,98643.45
2018-04-12T10:27:43.089Z,98654.11
2018-04-12T10:30:09.036Z,98651.34
2018-04-12T10:32:34.980Z,98651.63
2018-04-12T10:35:00.944Z,98675.40
2018-04-12T10:37:26.944Z,98667.99
2018-04-12T10:39:52.880Z,98688.13
2018-04-12T10:42:18.932Z,98663.67
2018-04-12T10:44:45.969Z,98646.19
2018-04-12T10:47:11.917Z,98648.06
2018-04-12T10:49:37.890Z,98650.68
2018-04-12T10:52:03.856Z,98640.17
2018-04-12T10:54:29.833Z,98631.22
2018-04-12T10:56:55.776Z,98637.55
2018-04-12T10:59:21.775Z,98633.98
2018-04-12T11:01:47.703Z,98628.89
2018-04-12T11:04:13.630Z,98625.27
2018-04-12T11:06:39.616Z,98613.08
2018-04-12T11:09:05.601Z,98622.71
2018-04-12T11:11:31.552Z,98613.27
2018-04-12T11:13:57.482Z,98613.11
2018-04-12T11:16:23.404Z,98612.86
2018-04-12T11:18:51.442Z,98606.01
2018-04-12T11:21:17.410Z,98596.56
2018-04-12T11:23:43.396Z,98621.33
2018-04-12T11:26:09.326Z,98596.37
2018-04-12T11:28:35.338Z,98607.94
2018-04-12T11:31:01.246Z,98592.35
2018-04-12T11:33:27.201Z,98595.71
2018-04-12T11:35:53.150Z,98592.91
2018-04-12T11:38:19.111Z,98605.72
2018-04-12T11:40:45.057Z,98592.41
2018-04-12T11:43:11.013Z,98582.95
2018-04-12T11:45:36.966Z,98582.83
2018-04-12T11:48:08.632Z,98584.85
2018-04-12T11:50:34.615Z,98593.63
2018-04-12T11:53:00.571Z,98588.95
2018-04-12T11:55:26.533Z,98586.22
2018-04-12T11:57:52.492Z,98587.30
2018-04-12T12:00:18.456Z,98577.42
2018-04-12T12:02:44.499Z,98569.37
2018-04-12T12:05:10.434Z,98595.27
2018-04-12T12:07:36.373Z,98619.95
2018-04-12T12:10:02.326Z,98603.47
2018-04-12T12:12:28.321Z,98613.42
2018-04-12T12:14:54.271Z,98603.45
2018-04-12T12:17:20.212Z,98591.86
2018-04-12T12:19:46.162Z,98585.03
2018-04-12T12:22:12.098Z,98580.34
2018-04-12T12:24:38.388Z,98569.00
2018-04-12T12:27:04.420Z,98580.08
2018-04-12T12:29:30.376Z,98584.34
2018-04-12T12:31:56.304Z,98572.81
2018-04-12T12:34:22.248Z,98565.91
2018-04-12T12:36:48.244Z,98575.47
2018-04-12T12:39:14.190Z,98568.94
2018-04-12T12:41:42.198Z,98565.27
2018-04-12T12:44:08.166Z,98565.80
2018-04-12T12:46:34.113Z,98557.14
2018-04-12T12:49:00.122Z,98565.78
2018-04-12T12:51:26.104Z,98556.31
2018-04-12T12:53:52.034Z,98569.72
2018-04-12T12:56:18.042Z,98554.55
2018-04-12T12:58:43.996Z,98561.76
2018-04-12T13:01:09.948Z,98567.94
2018-04-12T13:03:35.925Z,98561.60
2018-04-12T13:06:01.977Z,98561.24
2018-04-12T13:08:27.931Z,98573.47
2018-04-12T13:10:53.893Z,98567.30
2018-04-12T13:18:25.256Z,98544.32
2018-04-12T13:20:51.221Z,98533.67
2018-04-12T13:23:17.153Z,98517.23
2018-04-12T13:55:58.729Z,98555.28
2018-04-12T13:58:24.672Z,98523.59
2018-04-12T14:00:50.606Z,98536.32
2018-04-12T14:05:48.937Z,98524.87
2018-04-12T14:08:14.934Z,98518.96
2018-04-12T14:10:40.956Z,98510.64
2018-04-12T14:13:06.895Z,98509.25
2018-04-12T14:15:32.864Z,98510.89
2018-04-12T14:17:58.844Z,98505.28
2018-04-12T14:20:24.761Z,98502.58
2018-04-12T14:22:52.725Z,98502.17
2018-04-12T14:25:18.647Z,98497.48
2018-04-12T14:27:44.584Z,98516.84
2018-04-12T14:30:10.521Z,98500.98
2018-04-12T14:32:36.455Z,98505.66
2018-04-12T14:35:02.417Z,98513.53
2018-04-12T14:37:28.350Z,98515.64
2018-04-12T14:39:54.324Z,98510.62
2018-04-12T14:42:20.281Z,98511.69
2018-04-12T14:44:46.229Z,98506.11
2018-04-12T14:47:12.183Z,98519.29
2018-04-12T14:54:44.568Z,98509.84
2018-04-12T14:59:45.986Z,98504.23
2018-04-12T15:02:11.916Z,98512.38
2018-04-12T15:04:37.904Z,98507.18
2018-04-12T15:12:11.118Z,98496.06
2018-04-12T15:14:41.213Z,98497.39
2018-04-12T15:17:07.237Z,98491.31
2018-04-12T15:19:34.186Z,98502.86
2018-04-12T15:22:04.428Z,98501.09
2018-04-12T15:24:30.450Z,98506.89
2018-04-12T15:26:58.390Z,98499.05
2018-04-12T15:29:26.370Z,98488.31
2018-04-12T15:31:53.561Z,98503.04
2018-04-12T15:34:19.532Z,98497.49
2018-04-12T15:36:46.480Z,98502.23
2018-04-12T15:39:12.534Z,98495.43
2018-04-12T15:41:40.617Z,98497.13
2018-04-12T15:44:10.834Z,98498.09
2018-04-12T15:46:37.970Z,98496.91
2018-04-12T15:54:08.752Z,98506.58
2018-04-12T15:56:34.761Z,98513.41
2018-04-12T15:59:00.779Z,98500.84
2018-04-12T16:01:26.702Z,98500.91
2018-04-12T16:03:52.756Z,98500.37
2018-04-12T16:06:18.743Z,98502.26
2018-04-12T16:08:44.714Z,98504.72
2018-04-12T16:11:10.650Z,98500.33
2018-04-12T16:13:36.598Z,98501.80
2018-04-12T16:16:02.550Z,98498.33
2018-04-12T16:18:28.515Z,98498.64
2018-04-12T16:26:01.591Z,98497.26
2018-04-12T16:28:27.531Z,98503.34
2018-04-12T16:30:59.204Z,98495.97
2018-04-12T16:33:28.665Z,98505.86
2018-04-12T16:35:58.377Z,98496.95
2018-04-12T16:45:59.180Z,98497.55
2018-04-12T16:48:25.191Z,98498.50
2018-04-12T16:50:51.263Z,98497.27
2018-04-12T16:55:50.444Z,98500.14
2018-04-12T16:58:17.526Z,98495.20
2018-04-12T17:00:44.574Z,98501.06
2018-04-12T17:03:13.997Z,98499.92
2018-04-12T17:05:41.017Z,98495.44
2018-04-12T17:08:10.999Z,98497.71
2018-04-12T17:10:38.090Z,98500.20
2018-04-12T17:13:08.108Z,98500.34
2018-04-12T17:15:34.099Z,98510.34
2018-04-12T17:18:02.099Z,98504.57
2018-04-12T17:28:05.995Z,98491.88
2018-04-12T17:30:34.044Z,98519.72
2018-04-12T17:33:04.566Z,98518.77
2018-04-12T17:35:32.642Z,98520.66
2018-04-12T17:37:58.618Z,98529.84
2018-04-12T17:40:24.674Z,98528.16
2018-04-12T17:42:50.745Z,98533.19
2018-04-12T17:45:20.321Z,98528.99
2018-04-12T17:47:50.657Z,98536.34
2018-04-12T17:50:16.619Z,98529.53
2018-04-12T17:52:43.672Z,98534.06
2018-04-12T17:55:11.653Z,98535.52
2018-04-12T17:57:37.702Z,98531.44
2018-04-12T18:00:03.723Z,98530.72
2018-04-12T18:02:29.762Z,98532.39
2018-04-12T18:05:00.045Z,98536.38
2018-04-12T18:07:25.986Z,98541.55
2018-04-12T18:09:51.950Z,98532.17
2018-04-12T18:12:17.933Z,98543.86
2018-04-12T18:14:43.885Z,98546.81
2018-04-12T18:17:09.819Z,98547.98
2018-04-12T18:19:35.805Z,98549.62
2018-04-12T18:22:02.871Z,98554.13
2018-04-12T18:24:28.855Z,98552.77
2018-04-12T18:26:54.821Z,98554.80
2018-04-12T18:29:21.028Z,98551.17
2018-04-12T18:31:46.979Z,98558.47
2018-04-12T18:34:14.349Z,98565.25
2018-04-12T18:36:40.442Z,98566.25
2018-04-12T18:39:12.376Z,98568.20
2018-04-12T18:41:38.329Z,98567.41
2018-04-12T18:44:08.319Z,98570.74
2018-04-12T18:46:34.286Z,98566.07
2018-04-12T18:49:00.263Z,98569.56
2018-04-12T18:51:26.221Z,98572.12
2018-04-12T18:53:52.188Z,98569.23
2018-04-12T18:56:18.124Z,98568.55
2018-04-12T18:58:44.076Z,98566.84
2018-04-12T19:01:15.830Z,98572.03
2018-04-12T19:03:41.812Z,98569.14
2018-04-12T19:06:07.746Z,98570.68
2018-04-12T19:08:33.742Z,98567.55
2018-04-12T19:10:59.828Z,98577.31
2018-04-12T19:13:25.829Z,98576.52
2018-04-12T19:15:51.807Z,98568.91
2018-04-12T19:18:17.738Z,98569.84
2018-04-12T19:20:43.692Z,98575.91
2018-04-12T19:30:45.081Z,98573.72
2018-04-12T19:33:11.015Z,98573.82
2018-04-12T19:35:36.957Z,98579.80
2018-04-12T19:38:02.923Z,98579.77
2018-04-12T19:40:29.085Z,98585.83
2018-04-12T19:42:55.076Z,98584.05
2018-04-12T19:45:21.058Z,98590.55
2018-04-12T19:47:47.007Z,98589.27
2018-04-12T19:50:13.014Z,98594.02
2018-04-12T20:00:15.737Z,98592.04
2018-04-12T20:02:41.703Z,98590.70
2018-04-12T20:05:07.765Z,98592.98
2018-04-12T20:07:33.804Z,98593.91
2018-04-12T20:09:59.746Z,98590.91
2018-04-12T20:12:25.693Z,98589.73
2018-04-12T20:14:51.647Z,98595.84
2018-04-12T20:17:17.649Z,98589.05
2018-04-12T20:19:43.593Z,98587.78
2018-04-12T20:22:09.578Z,98582.66
2018-04-12T20:24:35.572Z,98588.33
2018-04-12T20:27:01.512Z,98584.59
2018-04-12T20:29:27.489Z,98583.81
2018-04-12T20:31:53.514Z,98587.72
2018-04-12T20:34:19.486Z,98586.52
2018-04-12T20:36:45.462Z,98584.83
2018-04-12T20:39:11.435Z,98586.62
2018-04-12T20:41:37.367Z,98580.67
2018-04-12T20:44:03.306Z,98582.86
2018-04-12T20:46:29.275Z,98582.10
2018-04-12T20:48:55.255Z,98576.63
2018-04-12T20:51:21.218Z,98577.98
2018-04-12T20:53:47.224Z,98581.31
2018-04-12T20:56:13.161Z,98589.92
2018-04-12T20:58:39.131Z,98576.78
2018-04-12T21:01:05.062Z,98580.27
2018-04-12T21:03:31.006Z,98584.05
2018-04-12T21:05:56.933Z,98575.23
2018-04-12T21:08:22.872Z,98582.98
2018-04-12T21:10:48.816Z,98584.28
2018-04-12T21:13:15.160Z,98584.33
2018-04-12T21:15:41.147Z,98578.02
2018-04-12T21:18:07.127Z,98578.91
2018-04-12T21:20:33.125Z,98578.91
2018-04-12T21:22:59.078Z,98582.47
2018-04-12T21:25:25.210Z,98580.05
2018-04-12T21:27:51.164Z,98581.34
2018-04-12T21:30:17.123Z,98579.70
2018-04-12T21:32:43.106Z,98583.55
2018-04-12T21:35:09.085Z,98571.77
2018-04-12T21:37:35.019Z,98572.75
2018-04-12T21:40:00.997Z,98582.55
2018-04-12T21:42:26.973Z,98576.60
2018-04-12T21:44:52.985Z,98574.77
2018-04-12T21:47:18.955Z,98577.84
2018-04-12T21:49:44.954Z,98574.03
2018-04-12T21:52:10.901Z,98579.70
2018-04-12T21:54:36.845Z,98578.50
2018-04-12T21:57:02.805Z,98579.95
2018-04-12T21:59:28.745Z,98580.54
2018-04-12T22:01:54.683Z,98578.77
2018-04-12T22:04:20.652Z,98586.23
2018-04-12T22:06:46.609Z,98588.38
2018-04-12T22:09:12.526Z,98585.47
2018-04-12T22:11:38.447Z,98583.41
2018-04-12T22:14:04.373Z,98591.16
2018-04-12T22:16:30.335Z,98588.23
2018-04-12T22:18:56.289Z,98589.58
2018-04-12T22:21:22.245Z,98597.70
2018-04-12T22:23:48.169Z,98592.72
2018-04-12T22:26:14.121Z,98598.19
2018-04-12T22:28:40.057Z,98593.52
2018-04-12T22:31:06.022Z,98595.69
2018-04-12T22:33:32.313Z,98597.55
2018-04-12T22:35:58.263Z,98598.84
2018-04-12T22:38:24.208Z,98602.41
2018-04-12T22:40:50.188Z,98597.34
2018-04-12T22:43:16.136Z,98600.32
2018-04-12T22:45:42.101Z,98602.82
2018-04-12T22:48:08.045Z,98603.55
2018-04-12T22:50:34.014Z,98607.02
2018-04-12T22:52:59.942Z,98602.83
2018-04-12T22:55:25.879Z,98597.87
2018-04-12T22:57:51.826Z,98600.56
2018-04-12T23:00:17.768Z,98593.86
2018-04-12T23:02:43.718Z,98585.75
2018-04-12T23:05:09.644Z,98588.08
2018-04-12T23:07:35.601Z,98581.08
2018-04-12T23:10:01.547Z,98584.44
2018-04-12T23:12:27.546Z,98589.38
2018-04-12T23:14:53.493Z,98570.95
2018-04-12T23:17:19.436Z,98579.17
2018-04-12T23:19:45.422Z,98574.20
2018-04-12T23:22:11.374Z,98578.91
2018-04-12T23:24:37.311Z,98586.27
2018-04-12T23:27:03.253Z,98576.64
2018-04-12T23:29:29.172Z,98574.77
2018-04-12T23:31:55.158Z,98574.42
2018-04-12T23:34:21.139Z,98580.45
2018-04-12T23:36:47.094Z,98578.84
2018-04-12T23:39:13.053Z,98581.09
2018-04-12T23:41:39.010Z,98578.04
2018-04-12T23:44:04.968Z,98589.11
2018-04-12T23:46:30.892Z,98588.70
2018-04-12T23:48:56.860Z,98581.38
2018-04-12T23:51:22.817Z,98580.10
2018-04-12T23:53:48.772Z,98583.80
2018-04-12T23:56:14.720Z,98588.48
2018-04-12T23:58:40.643Z,98587.84
